Lincoln, IL

3:51 AM CST on November 15, 2019 (GMT -0600)
Lincoln

Weather History for KAAA - October, 2019

Change the Weather History Date:

Sunday, October 20, 2019

  Actual Average (WUND) Record (WUND)
Temperature  
Mean Temperature 59 °F -  
Max Temperature 68 °F - - (-1)
Min Temperature 51 °F - - (-1)
Degree Days  
Heating Degree Days 6    
Growing Degree Days 9 (Base 50)    
Moisture  
Dew Point 51 °F    
Average Humidity 82    
Maximum Humidity 95    
Minimum Humidity 54    
Precipitation  
Precipitation 0.00 in - - ()
Sea Level Pressure  
Sea Level Pressure 29.87 in    
Wind  
Wind Speed 2 mph ()    
Max Wind Speed 13 mph    
Max Gust Speed -    
Visibility 9.5 miles    
Events      
Averages and records for this station are not official NWS values.
T = Trace of Precipitation, MM = Missing Value Source: Averaged Metar Reports

Daily Weather History Graph

Daily Weather History Graph

Search for Another Location

Airport or City:

Astronomy

Oct. 20, 2019 Rise Set
Actual Time 7:13 AM CDT 6:10 PM CDT
Civil Twilight 6:45 AM CDT 6:38 PM CDT
Nautical Twilight 6:13 AM CDT 7:09 PM CDT
Astronomical Twilight 5:42 AM CDT 7:41 PM CDT
Moon 11:19 PM CDT (10/20) 1:41 PM CDT (10/20)
Length of Visible Light 11h 52m
Length of Day
10h 57m
Waning Gibbous, 59% of the Moon is Illuminated
Oct 20
Waning Gibbous
Oct 21
Last Quarter
Oct 27
New
Nov 4
First Quarter
Nov 12
Full

Hourly Weather History & Observations

Time (CDT) Temp. Dew Point Humidity Pressure Visibility Wind Dir Wind Speed Gust Speed Precip Events Conditions
12:15 AM 57.2 °F 53.8 °F 88% 29.80 in 10.0 mi WNW 3.5 mph - N/A   Overcast
12:35 AM 56.7 °F 54.0 °F 91% 29.80 in 10.0 mi Calm Calm - N/A   Overcast
12:55 AM 56.7 °F 53.8 °F 90% 29.80 in 10.0 mi Calm Calm - N/A   Overcast
1:15 AM 56.3 °F 53.8 °F 91% 29.81 in 10.0 mi Calm Calm - N/A   Overcast
1:35 AM 56.3 °F 53.8 °F 91% 29.81 in 10.0 mi Calm Calm - N/A   Overcast
1:55 AM 56.1 °F 53.8 °F 92% 29.81 in 10.0 mi Calm Calm - N/A   Overcast
2:15 AM 55.9 °F 53.6 °F 92% 29.81 in 10.0 mi Calm Calm - N/A   Overcast
2:35 AM 55.8 °F 53.6 °F 92% 29.81 in 10.0 mi NW 3.5 mph - N/A   Overcast
2:55 AM 55.6 °F 53.6 °F 93% 29.81 in 10.0 mi Calm Calm - N/A   Overcast
3:15 AM 55.4 °F 53.6 °F 94% 29.82 in 10.0 mi Calm Calm - N/A   Overcast
3:35 AM 55.4 °F 53.6 °F 94% 29.83 in 10.0 mi Calm Calm - N/A   Overcast
3:55 AM 55.4 °F 53.6 °F 94% 29.83 in 10.0 mi Calm Calm - N/A   Overcast
4:15 AM 55.4 °F 53.6 °F 94% 29.84 in 10.0 mi Calm Calm - N/A   Overcast
4:35 AM 55.4 °F 52.5 °F 90% 29.84 in 10.0 mi Calm Calm - N/A   Overcast
4:55 AM 55.2 °F 52.5 °F 91% 29.85 in 10.0 mi Calm Calm - N/A   Overcast
5:15 AM 55.0 °F 52.2 °F 90% 29.85 in 10.0 mi Calm Calm - N/A   Overcast
5:35 AM 54.9 °F 52.0 °F 90% 29.86 in 10.0 mi NNW 3.5 mph - N/A   Overcast
5:55 AM 54.7 °F 52.3 °F 92% 29.86 in 10.0 mi Calm Calm - N/A   Overcast
6:15 AM 54.5 °F 52.2 °F 92% 29.87 in 10.0 mi Calm Calm - N/A   Overcast
6:35 AM 54.1 °F 52.0 °F 92% 29.88 in 10.0 mi Calm Calm - N/A   Overcast
6:55 AM 54.0 °F 51.6 °F 92% 29.88 in 10.0 mi Calm Calm - N/A   Overcast
7:15 AM 53.6 °F 50.9 °F 91% 29.89 in 10.0 mi NNW 3.5 mph - N/A   Overcast
7:35 AM 53.2 °F 50.9 °F 92% 29.89 in 10.0 mi Calm Calm - N/A   Overcast
7:55 AM 53.2 °F 50.5 °F 91% 29.90 in 10.0 mi Calm Calm - N/A   Overcast
8:15 AM 53.2 °F 50.5 °F 91% 29.91 in 10.0 mi Calm Calm - N/A   Overcast
8:35 AM 53.6 °F 50.5 °F 89% 29.92 in 10.0 mi North 4.6 mph - N/A   Overcast
8:55 AM 54.0 °F 50.4 °F 88% 29.93 in 10.0 mi North 5.8 mph - N/A   Overcast
9:15 AM 55.0 °F 49.8 °F 83% 29.93 in 10.0 mi NNE 8.1 mph - N/A   Mostly Cloudy
9:35 AM 56.1 °F 50.4 °F 81% 29.93 in 10.0 mi North 6.9 mph - N/A   Mostly Cloudy
9:55 AM 57.2 °F 50.9 °F 79% 29.93 in 10.0 mi NE 6.9 mph - N/A   Mostly Cloudy
10:15 AM 57.0 °F 50.2 °F 78% 29.93 in 10.0 mi North 6.9 mph - N/A   Scattered Clouds
10:35 AM 58.3 °F 50.4 °F 75% 29.93 in 10.0 mi NNE 6.9 mph - N/A   Clear
10:55 AM 58.8 °F 50.0 °F 73% 29.93 in 10.0 mi NNE 4.6 mph - N/A   Clear
11:15 AM 60.6 °F 50.2 °F 68% 29.93 in 10.0 mi NNE 5.8 mph - N/A   Clear
11:35 AM 61.9 °F 49.3 °F 63% 29.93 in 10.0 mi ENE 4.6 mph - N/A   Clear
11:55 AM 63.0 °F 50.0 °F 63% 29.92 in 10.0 mi ENE 6.9 mph - N/A   Clear
12:15 PM 64.0 °F 49.6 °F 59% 29.91 in 10.0 mi East 4.6 mph - N/A   Clear
12:35 PM 65.5 °F 49.5 °F 56% 29.91 in 10.0 mi ESE 6.9 mph - N/A   Clear
12:55 PM 65.8 °F 49.3 °F 55% 29.90 in 10.0 mi ENE 5.8 mph - N/A   Clear
1:15 PM 66.4 °F 49.5 °F 54% 29.90 in 10.0 mi SE 3.5 mph - N/A   Clear
1:35 PM 66.7 °F 50.2 °F 55% 29.89 in 10.0 mi East 6.9 mph - N/A   Clear
1:55 PM 66.7 °F 50.5 °F 56% 29.89 in 10.0 mi ESE 4.6 mph - N/A   Clear
2:15 PM 67.6 °F 51.1 °F 55% 29.88 in 10.0 mi East 5.8 mph - N/A   Clear
2:35 PM 67.1 °F 51.4 °F 57% 29.88 in 10.0 mi South 5.8 mph - N/A   Scattered Clouds
2:55 PM 66.7 °F 51.3 °F 57% 29.87 in 10.0 mi SE 4.6 mph - N/A   Clear
3:15 PM 67.5 °F 51.8 °F 57% 29.87 in 10.0 mi ESE 6.9 mph - N/A   Clear
3:35 PM 66.9 °F 52.0 °F 59% 29.87 in 10.0 mi SE 6.9 mph - N/A   Clear
3:55 PM 66.7 °F 51.4 °F 58% 29.87 in 10.0 mi SE 8.1 mph - N/A   Clear
4:15 PM 66.0 °F 51.6 °F 60% 29.87 in 10.0 mi SE 5.8 mph - N/A   Clear
4:35 PM 65.1 °F 52.9 °F 65% 29.86 in 10.0 mi South 12.7 mph - N/A   Clear
4:55 PM 63.1 °F 52.9 °F 69% 29.87 in 10.0 mi SSE 8.1 mph - N/A   Clear
5:15 PM 61.5 °F 52.7 °F 73% 29.87 in 7.0 mi SSE 8.1 mph - N/A   Clear
5:35 PM 59.9 °F 52.3 °F 76% 29.87 in 7.0 mi SSE 6.9 mph - N/A   Clear
5:55 PM 58.3 °F 52.0 °F 80% 29.86 in 10.0 mi SSE 5.8 mph - N/A   Clear
6:15 PM 57.2 °F 51.8 °F 82% 29.88 in 10.0 mi South 4.6 mph - N/A   Clear
6:35 PM 55.6 °F 51.3 °F 85% 29.88 in 10.0 mi Calm Calm - N/A   Clear
6:55 PM 54.5 °F 50.7 °F 87% 29.87 in 10.0 mi Calm Calm - N/A   Clear
7:15 PM 53.6 °F 50.5 °F 89% 29.87 in 10.0 mi SE 4.6 mph - N/A   Clear
7:35 PM 52.7 °F 50.2 °F 91% 29.87 in 10.0 mi ESE 3.5 mph - N/A   Clear
7:55 PM 51.8 °F 49.6 °F 92% 29.86 in 7.0 mi Calm Calm - N/A   Clear
8:15 PM 51.1 °F 49.3 °F 94% 29.87 in 7.0 mi Calm Calm - N/A   Clear
8:35 PM 51.1 °F 49.6 °F 95% 29.86 in 7.0 mi Calm Calm - N/A   Clear
8:55 PM 51.1 °F 49.6 °F 95% 29.86 in 7.0 mi Calm Calm - N/A   Clear
9:15 PM 51.4 °F 49.8 °F 94% 29.86 in 7.0 mi Calm Calm - N/A   Mostly Cloudy
9:35 PM 51.8 °F 50.0 °F 94% 29.85 in 7.0 mi Calm Calm - N/A   Mostly Cloudy
9:55 PM 52.0 °F 50.4 °F 94% 29.84 in 7.0 mi Calm Calm - N/A   Mostly Cloudy
10:15 PM 52.0 °F 50.4 °F 94% 29.84 in 7.0 mi East 3.5 mph - N/A   Mostly Cloudy
10:35 PM 52.2 °F 50.5 °F 94% 29.83 in 7.0 mi Calm Calm - N/A   Overcast
10:55 PM 53.6 °F 51.4 °F 92% 29.82 in 10.0 mi East 3.5 mph - N/A   Mostly Cloudy
11:15 PM 54.0 °F 52.5 °F 95% 29.81 in 10.0 mi East 3.5 mph - N/A   Overcast
11:35 PM 55.6 °F 53.1 °F 91% 29.79 in 10.0 mi East 4.6 mph - N/A   Overcast
11:55 PM 55.8 °F 53.1 °F 91% 29.77 in 10.0 mi East 6.9 mph - N/A   Mostly Cloudy